Time;durP1;ratioP1;P1;durP2;ratioP2;P2;SDS_P1;SDS_P2;PMS_P1;PMS_P2;Temp;Humidity;BMP_temperature;BMP_pressure;BME280_temperature;BME280_humidity;BME280_pressure;Samples;Min_cycle;Max_cycle;Signal;HPM_P1;HPM_P2
2022/06/07 00:00:49;;;;;;;3.83;3.47;;;;;;;;;;5110930;28;20167;-52
2022/06/07 00:03:15;;;;;;;3.17;2.97;;;;;;;;;;5110774;28;20239;-52
2022/06/07 00:05:43;;;;;;;3.60;3.30;;;;;;;;;;5111073;28;20664;-52
2022/06/07 00:08:10;;;;;;;3.77;3.40;;;;;;;;;;5110913;28;20258;-52
2022/06/07 00:10:36;;;;;;;3.93;3.63;;;;;;;;;;5110051;28;20175;-52
2022/06/07 00:13:02;;;;;;;3.53;3.20;;;;;;;;;;5110593;28;20169;-52
2022/06/07 00:15:28;;;;;;;3.20;2.93;;;;;;;;;;5110255;28;20644;-52
2022/06/07 00:17:54;;;;;;;3.17;2.97;;;;;;;;;;5110681;28;20163;-52
2022/06/07 00:20:21;;;;;;;4.97;3.23;;;;;;;;;;5110025;28;20296;-52
2022/06/07 00:22:47;;;;;;;3.70;3.40;;;;;;;;;;5108681;28;20226;-52
2022/06/07 00:25:14;;;;;;;3.47;3.27;;;;;;;;;;5110035;28;20167;-52
2022/06/07 00:27:40;;;;;;;3.93;3.47;;;;;;;;;;5110137;28;20192;-52
2022/06/07 00:30:07;;;;;;;3.37;3.17;;;;;;;;;;5110875;28;20255;-52
2022/06/07 00:32:34;;;;;;;4.07;3.67;;;;;;;;;;5110450;28;20175;-52
2022/06/07 00:35:00;;;;;;;3.93;3.63;;;;;;;;;;5110209;28;20535;-52
2022/06/07 00:37:26;;;;;;;3.57;3.27;;;;;;;;;;5110651;28;20243;-52
2022/06/07 00:39:52;;;;;;;4.03;3.63;;;;;;;;;;5102079;28;20246;-52
2022/06/07 00:42:18;;;;;;;4.00;3.70;;;;;;;;;;5089548;28;20275;-52
2022/06/07 00:44:46;;;;;;;4.50;4.10;;;;;;;;;;5102491;28;20167;-52
2022/06/07 00:47:14;;;;;;;4.80;4.03;;;;;;;;;;5110507;28;20472;-52
2022/06/07 00:49:43;;;;;;;5.57;4.73;;;;;;;;;;5109509;28;20202;-52
2022/06/07 00:52:10;;;;;;;5.67;4.47;;;;;;;;;;5110146;28;20576;-53
2022/06/07 00:54:36;;;;;;;4.37;3.97;;;;;;;;;;5109050;28;20665;-52
2022/06/07 00:57:02;;;;;;;5.67;5.17;;;;;;;;;;5110126;28;20524;-52
2022/06/07 00:59:29;;;;;;;4.90;4.43;;;;;;;;;;5109484;28;20201;-51
2022/06/07 01:01:55;;;;;;;4.90;4.47;;;;;;;;;;5110241;28;20562;-52
2022/06/07 01:04:23;;;;;;;6.03;5.43;;;;;;;;;;5109782;28;20580;-52
2022/06/07 01:12:27;;;;;;;10.40;5.83;;;;;;;;;;5109669;28;20183;-52
2022/06/07 01:14:54;;;;;;;6.90;6.30;;;;;;;;;;5109387;28;20162;-52
2022/06/07 01:17:20;;;;;;;6.07;5.47;;;;;;;;;;5110066;28;20558;-52
2022/06/07 01:19:46;;;;;;;8.37;5.63;;;;;;;;;;5109254;28;20194;-51
2022/06/07 01:22:12;;;;;;;7.07;6.40;;;;;;;;;;5107754;28;20220;-51
2022/06/07 01:24:39;;;;;;;7.47;6.77;;;;;;;;;;5108700;28;20171;-51
2022/06/07 01:27:06;;;;;;;7.53;6.87;;;;;;;;;;5092581;28;20180;-51
2022/06/07 01:29:32;;;;;;;8.07;7.30;;;;;;;;;;5099980;28;20163;-52
2022/06/07 01:31:58;;;;;;;8.17;7.20;;;;;;;;;;5109608;28;20156;-52
2022/06/07 01:34:24;;;;;;;7.70;6.90;;;;;;;;;;5109420;28;20513;-51
2022/06/07 01:36:50;;;;;;;7.80;7.10;;;;;;;;;;5110352;28;20159;-51
2022/06/07 01:42:01;;;;;;;8.27;7.47;;;;;;;;;;5109366;28;20232;-51
2022/06/07 01:44:29;;;;;;;8.70;7.87;;;;;;;;;;5108771;28;20167;-52
2022/06/07 01:46:56;;;;;;;8.10;7.40;;;;;;;;;;5109187;28;20213;-51
2022/06/07 01:49:23;;;;;;;9.10;8.20;;;;;;;;;;5108722;28;20171;-52
2022/06/07 01:51:50;;;;;;;9.43;8.53;;;;;;;;;;5109170;28;20194;-52
2022/06/07 01:54:17;;;;;;;9.10;8.20;;;;;;;;;;5081359;28;20286;-53
2022/06/07 01:56:43;;;;;;;8.40;7.70;;;;;;;;;;5091663;28;20175;-52
2022/06/07 01:59:09;;;;;;;8.80;8.00;;;;;;;;;;5094328;28;20218;-52
2022/06/07 02:01:36;;;;;;;8.07;7.37;;;;;;;;;;5109772;28;20571;-52
2022/06/07 02:04:03;;;;;;;9.07;7.70;;;;;;;;;;5083653;28;20774;-52
2022/06/07 02:06:29;;;;;;;7.83;7.03;;;;;;;;;;5089554;28;20164;-52
2022/06/07 02:08:55;;;;;;;7.20;6.60;;;;;;;;;;5093684;28;20175;-52
2022/06/07 02:11:23;;;;;;;7.87;7.17;;;;;;;;;;5109215;28;20469;-51
2022/06/07 02:13:49;;;;;;;8.00;7.17;;;;;;;;;;5103476;28;20221;-52
2022/06/07 02:16:16;;;;;;;7.70;6.90;;;;;;;;;;5109317;28;20159;-52
2022/06/07 02:18:43;;;;;;;8.43;7.63;;;;;;;;;;5108346;28;20199;-52
2022/06/07 02:21:10;;;;;;;8.73;7.93;;;;;;;;;;5109822;28;20628;-52
2022/06/07 02:23:37;;;;;;;7.57;6.87;;;;;;;;;;5106258;28;20230;-52
2022/06/07 02:26:06;;;;;;;8.37;7.23;;;;;;;;;;5109512;28;20263;-52
2022/06/07 02:28:34;;;;;;;8.00;7.20;;;;;;;;;;5108028;28;20184;-52
2022/06/07 02:31:00;;;;;;;10.00;7.67;;;;;;;;;;5109096;28;20221;-52
2022/06/07 02:33:28;;;;;;;7.13;6.53;;;;;;;;;;5108549;28;20167;-52
2022/06/07 02:35:55;;;;;;;9.23;7.53;;;;;;;;;;5091090;28;20538;-52
2022/06/07 02:38:21;;;;;;;7.60;6.77;;;;;;;;;;5110453;28;20555;-52
2022/06/07 02:40:48;;;;;;;7.03;6.33;;;;;;;;;;5079215;28;20176;-52
2022/06/07 02:43:15;;;;;;;9.67;6.53;;;;;;;;;;5091837;28;20247;-52
2022/06/07 02:45:41;;;;;;;6.83;6.23;;;;;;;;;;5113301;28;20167;-52
2022/06/07 02:48:08;;;;;;;7.20;6.50;;;;;;;;;;5113334;28;20540;-52
2022/06/07 02:50:35;;;;;;;7.73;6.50;;;;;;;;;;5112526;28;20753;-52
2022/06/07 02:53:01;;;;;;;7.17;5.70;;;;;;;;;;5112374;28;20168;-52
2022/06/07 02:55:27;;;;;;;6.03;5.50;;;;;;;;;;5111774;28;20198;-52
2022/06/07 02:57:53;;;;;;;6.77;6.07;;;;;;;;;;5094455;28;20237;-52
2022/06/07 03:00:19;;;;;;;6.97;6.30;;;;;;;;;;5112483;28;20208;-52
2022/06/07 03:02:45;;;;;;;8.47;5.73;;;;;;;;;;5113275;28;20619;-52
2022/06/07 03:05:11;;;;;;;7.43;5.70;;;;;;;;;;5112193;28;20175;-52
2022/06/07 03:07:41;;;;;;;5.43;4.93;;;;;;;;;;5112448;28;20238;-52
2022/06/07 03:10:08;;;;;;;5.93;5.37;;;;;;;;;;5112022;28;20175;-52
2022/06/07 03:12:34;;;;;;;7.83;4.50;;;;;;;;;;5112644;28;20246;-52
2022/06/07 03:15:00;;;;;;;8.73;3.83;;;;;;;;;;5079079;28;20283;-51
2022/06/07 03:17:26;;;;;;;3.87;3.53;;;;;;;;;;5112458;28;20185;-51
2022/06/07 03:19:52;;;;;;;6.10;4.37;;;;;;;;;;5112061;28;20195;-51
2022/06/07 03:22:19;;;;;;;5.33;3.73;;;;;;;;;;5110889;28;20318;-52
2022/06/07 03:24:45;;;;;;;6.10;3.00;;;;;;;;;;5111631;28;20690;-52
2022/06/07 03:27:12;;;;;;;6.37;3.60;;;;;;;;;;5078992;28;20669;-52
2022/06/07 03:29:38;;;;;;;3.73;3.30;;;;;;;;;;5083585;28;20535;-52
2022/06/07 03:32:06;;;;;;;4.43;4.13;;;;;;;;;;5111592;28;20198;-52
2022/06/07 03:34:32;;;;;;;4.87;3.50;;;;;;;;;;5111154;28;20179;-52
2022/06/07 03:36:59;;;;;;;7.03;3.47;;;;;;;;;;5111681;28;20616;-52
2022/06/07 03:39:25;;;;;;;5.33;3.50;;;;;;;;;;5110889;28;20209;-53
2022/06/07 03:41:52;;;;;;;6.37;3.43;;;;;;;;;;5111937;28;20156;-53
2022/06/07 03:44:18;;;;;;;5.23;3.20;;;;;;;;;;5110472;28;20622;-53
2022/06/07 03:46:45;;;;;;;4.83;3.30;;;;;;;;;;5110914;28;20250;-54
2022/06/07 03:49:11;;;;;;;4.23;3.00;;;;;;;;;;5110296;28;20178;-53
2022/06/07 03:51:37;;;;;;;4.03;2.70;;;;;;;;;;5111776;28;20669;-53
2022/06/07 03:54:04;;;;;;;4.63;3.20;;;;;;;;;;5110421;28;20171;-53
2022/06/07 03:56:30;;;;;;;3.30;3.00;;;;;;;;;;5093526;28;20175;-52
2022/06/07 03:58:56;;;;;;;5.03;3.27;;;;;;;;;;5103304;28;20217;-53
2022/06/07 04:01:23;;;;;;;4.90;4.53;;;;;;;;;;5110417;28;20213;-53
2022/06/07 04:03:50;;;;;;;3.30;3.00;;;;;;;;;;5110363;28;20171;-53
2022/06/07 04:06:37;;;;;;;3.57;3.10;;;;;;;;;;5111262;28;20163;-53
2022/06/07 04:09:03;;;;;;;8.07;3.40;;;;;;;;;;5110060;28;20194;-53
2022/06/07 04:11:29;;;;;;;6.50;3.03;;;;;;;;;;5111711;28;20497;-52
2022/06/07 04:14:02;;;;;;;3.03;2.83;;;;;;;;;;5110565;28;20208;-52
2022/06/07 04:16:29;;;;;;;4.10;2.90;;;;;;;;;;5111833;28;20502;-51
2022/06/07 04:18:56;;;;;;;3.50;2.30;;;;;;;;;;5111275;28;20198;-52
2022/06/07 04:21:25;;;;;;;6.73;3.67;;;;;;;;;;5112137;28;20239;-51
2022/06/07 04:23:51;;;;;;;4.20;2.70;;;;;;;;;;5109140;28;20223;-52
2022/06/07 04:26:27;;;;;;;3.47;2.70;;;;;;;;;;5110950;28;20254;-51
2022/06/07 04:28:54;;;;;;;4.63;2.30;;;;;;;;;;5110944;28;20622;-52
2022/06/07 04:31:22;;;;;;;2.80;2.60;;;;;;;;;;5111836;28;20162;-52
2022/06/07 04:33:48;;;;;;;4.93;2.37;;;;;;;;;;5111103;28;20281;-51
2022/06/07 04:36:19;;;;;;;2.10;2.00;;;;;;;;;;5111815;28;20534;-51
2022/06/07 04:38:46;;;;;;;6.00;2.63;;;;;;;;;;5086975;28;20210;-51
2022/06/07 04:41:14;;;;;;;2.80;2.27;;;;;;;;;;5092147;28;20168;-51
2022/06/07 04:43:40;;;;;;;3.67;2.77;;;;;;;;;;5071672;28;20172;-51
2022/06/07 04:46:07;;;;;;;5.03;3.20;;;;;;;;;;5110038;28;20639;-51
2022/06/07 04:48:34;;;;;;;3.20;2.60;;;;;;;;;;5110193;28;20176;-51
2022/06/07 04:51:00;;;;;;;2.73;2.30;;;;;;;;;;5110818;28;20190;-51
2022/06/07 04:53:26;;;;;;;2.73;2.07;;;;;;;;;;5109491;28;20239;-51
2022/06/07 04:55:52;;;;;;;3.37;2.60;;;;;;;;;;5111048;28;20182;-51
2022/06/07 04:58:19;;;;;;;3.20;2.47;;;;;;;;;;5110032;28;20576;-51
2022/06/07 05:00:45;;;;;;;3.80;3.57;;;;;;;;;;5109675;28;20300;-51
2022/06/07 05:03:11;;;;;;;2.40;2.20;;;;;;;;;;5110159;28;20518;-50
2022/06/07 05:05:37;;;;;;;2.70;2.50;;;;;;;;;;5109697;28;20233;-51
2022/06/07 05:08:03;;;;;;;3.90;2.50;;;;;;;;;;5110800;28;20168;-52
2022/06/07 05:10:29;;;;;;;3.50;2.40;;;;;;;;;;5110474;28;20687;-51
2022/06/07 05:12:55;;;;;;;2.73;2.37;;;;;;;;;;5110981;28;20151;-51
2022/06/07 05:15:21;;;;;;;3.37;2.40;;;;;;;;;;5093072;28;20614;-50
2022/06/07 05:17:48;;;;;;;2.50;2.30;;;;;;;;;;5110311;28;20538;-51
2022/06/07 05:20:22;;;;;;;2.60;2.33;;;;;;;;;;5108845;28;20629;-51
2022/06/07 05:23:02;;;;;;;5.30;2.40;;;;;;;;;;5108020;28;20219;-51
2022/06/07 05:25:29;;;;;;;2.13;1.87;;;;;;;;;;5107799;28;20772;-51
2022/06/07 05:27:57;;;;;;;3.47;2.43;;;;;;;;;;5089776;28;20160;-51
2022/06/07 05:30:24;;;;;;;3.10;2.10;;;;;;;;;;5108278;28;20658;-51
2022/06/07 05:32:50;;;;;;;5.80;2.50;;;;;;;;;;5111169;28;20231;-51
2022/06/07 05:35:16;;;;;;;2.93;2.30;;;;;;;;;;5110062;28;20176;-50
2022/06/07 05:37:42;;;;;;;3.07;2.30;;;;;;;;;;5110040;28;20201;-51
2022/06/07 05:40:08;;;;;;;2.40;2.20;;;;;;;;;;5109539;28;20697;-50
2022/06/07 05:42:34;;;;;;;2.80;2.17;;;;;;;;;;5110136;28;20160;-51
2022/06/07 05:45:00;;;;;;;2.97;2.67;;;;;;;;;;5110128;28;20695;-51
2022/06/07 05:47:27;;;;;;;4.40;2.37;;;;;;;;;;5110217;28;20182;-50
2022/06/07 05:49:53;;;;;;;2.00;1.90;;;;;;;;;;5110403;28;20168;-50
2022/06/07 05:52:19;;;;;;;3.20;2.33;;;;;;;;;;5109923;28;20173;-51
2022/06/07 05:54:45;;;;;;;2.57;2.07;;;;;;;;;;5091366;28;20240;-51
2022/06/07 05:57:11;;;;;;;3.33;2.10;;;;;;;;;;5110419;28;20673;-51
2022/06/07 05:59:38;;;;;;;2.97;2.50;;;;;;;;;;5096729;28;20256;-50
2022/06/07 06:02:04;;;;;;;3.00;2.70;;;;;;;;;;5110406;28;20259;-50
2022/06/07 06:04:30;;;;;;;3.10;2.27;;;;;;;;;;5110383;28;20216;-51
2022/06/07 06:06:58;;;;;;;3.60;2.60;;;;;;;;;;5109879;28;20544;-50
2022/06/07 06:12:10;;;;;;;2.57;2.10;;;;;;;;;;5111873;28;20190;-51
2022/06/07 06:14:36;;;;;;;2.90;2.70;;;;;;;;;;5114089;28;20195;-51
2022/06/07 06:17:03;;;;;;;2.40;2.20;;;;;;;;;;5114357;28;20310;-51
2022/06/07 06:19:29;;;;;;;3.50;2.63;;;;;;;;;;5113797;28;20558;-51
2022/06/07 06:21:55;;;;;;;2.80;2.27;;;;;;;;;;5111814;28;20159;-52
2022/06/07 06:24:23;;;;;;;2.47;2.20;;;;;;;;;;5081982;28;20193;-49
2022/06/07 06:26:51;;;;;;;2.53;2.30;;;;;;;;;;5073148;28;20160;-49
2022/06/07 06:29:17;;;;;;;3.53;2.37;;;;;;;;;;5072561;28;20220;-49
2022/06/07 06:31:46;;;;;;;3.03;2.30;;;;;;;;;;5073745;28;20184;-48
2022/06/07 06:34:12;;;;;;;2.93;2.33;;;;;;;;;;5073265;28;20181;-49
2022/06/07 06:36:39;;;;;;;3.13;2.23;;;;;;;;;;5073467;28;20603;-48
2022/06/07 06:39:06;;;;;;;3.97;2.50;;;;;;;;;;5072131;28;20275;-49
2022/06/07 06:41:33;;;;;;;5.70;2.53;;;;;;;;;;5073712;28;20632;-49
2022/06/07 06:44:01;;;;;;;2.47;2.27;;;;;;;;;;5072775;28;20177;-48
2022/06/07 06:46:31;;;;;;;6.73;4.40;;;;;;;;;;5073503;28;20169;-49
2022/06/07 06:48:57;;;;;;;2.80;2.47;;;;;;;;;;5072648;28;20261;-49
2022/06/07 06:51:24;;;;;;;4.07;2.40;;;;;;;;;;5072751;28;20697;-49
2022/06/07 06:53:50;;;;;;;5.63;2.90;;;;;;;;;;5071708;28;20634;-48
2022/06/07 06:56:17;;;;;;;3.13;2.83;;;;;;;;;;5072897;28;20603;-49
2022/06/07 06:58:43;;;;;;;4.27;3.20;;;;;;;;;;5071676;28;20213;-48
2022/06/07 07:01:31;;;;;;;3.30;2.50;;;;;;;;;;5073190;28;20154;-49
2022/06/07 07:03:58;;;;;;;3.20;2.70;;;;;;;;;;5072012;28;20555;-48
2022/06/07 07:06:24;;;;;;;2.93;2.63;;;;;;;;;;5072831;28;20607;-49
2022/06/07 07:08:50;;;;;;;2.90;2.43;;;;;;;;;;5072066;28;20223;-48
2022/06/07 07:11:19;;;;;;;3.50;2.60;;;;;;;;;;5072780;28;20286;-54
2022/06/07 07:13:46;;;;;;;4.67;2.70;;;;;;;;;;5076386;28;20486;-50
2022/06/07 07:16:14;;;;;;;5.27;2.70;;;;;;;;;;5093010;28;20166;-50
2022/06/07 07:18:40;;;;;;;3.63;2.67;;;;;;;;;;5092512;28;20208;-50
2022/06/07 07:21:09;;;;;;;3.67;3.37;;;;;;;;;;5093371;28;20283;-49
2022/06/07 07:23:36;;;;;;;4.83;2.90;;;;;;;;;;5091057;28;20316;-49
2022/06/07 07:26:03;;;;;;;5.90;3.23;;;;;;;;;;5086076;28;20198;-51
2022/06/07 07:28:30;;;;;;;3.93;3.37;;;;;;;;;;5071971;28;20552;-51
2022/06/07 07:31:00;;;;;;;3.17;2.57;;;;;;;;;;5072999;28;20611;-50
2022/06/07 07:33:26;;;;;;;3.57;2.93;;;;;;;;;;5072345;28;20613;-50
2022/06/07 07:35:52;;;;;;;2.70;2.50;;;;;;;;;;5072473;28;20535;-50
2022/06/07 07:38:19;;;;;;;3.60;3.20;;;;;;;;;;5071289;28;20175;-51
2022/06/07 07:40:45;;;;;;;6.97;3.00;;;;;;;;;;5072419;28;20211;-51
2022/06/07 07:43:11;;;;;;;5.00;2.60;;;;;;;;;;5071160;28;20184;-51
2022/06/07 07:45:37;;;;;;;5.53;2.93;;;;;;;;;;5071391;28;20181;-51
2022/06/07 07:48:04;;;;;;;5.40;2.97;;;;;;;;;;5071848;28;20202;-52
2022/06/07 07:50:30;;;;;;;3.23;2.77;;;;;;;;;;5071223;28;20204;-52
2022/06/07 07:52:59;;;;;;;3.03;2.27;;;;;;;;;;5071385;28;20309;-51
2022/06/07 07:55:25;;;;;;;4.53;3.33;;;;;;;;;;5070885;28;20196;-52
2022/06/07 07:57:51;;;;;;;3.07;2.83;;;;;;;;;;5067106;28;20181;-51
2022/06/07 08:00:18;;;;;;;2.90;2.67;;;;;;;;;;5068335;28;20212;-52
2022/06/07 08:02:44;;;;;;;3.70;2.70;;;;;;;;;;5071364;28;20188;-52
2022/06/07 08:05:10;;;;;;;5.30;3.53;;;;;;;;;;5071248;28;20177;-51
2022/06/07 08:07:36;;;;;;;3.33;2.73;;;;;;;;;;5070571;28;20230;-52
2022/06/07 08:10:05;;;;;;;3.80;2.43;;;;;;;;;;5070023;28;20180;-53
2022/06/07 08:12:31;;;;;;;3.92;2.78;;;;;;;;;;5069775;28;20405;-52
2022/06/07 08:14:58;;;;;;;2.40;2.20;;;;;;;;;;5071058;28;20320;-52
2022/06/07 08:17:24;;;;;;;3.93;3.03;;;;;;;;;;5070785;28;20161;-52
2022/06/07 08:19:50;;;;;;;4.27;2.70;;;;;;;;;;5070326;28;20188;-51
2022/06/07 08:22:16;;;;;;;3.77;2.43;;;;;;;;;;5070366;28;20585;-52
2022/06/07 08:24:43;;;;;;;2.87;2.40;;;;;;;;;;5093979;28;20509;-51
2022/06/07 08:27:09;;;;;;;4.20;2.90;;;;;;;;;;5094631;28;20263;-51
2022/06/07 08:29:35;;;;;;;6.40;2.90;;;;;;;;;;5100986;28;20265;-51
2022/06/07 08:32:01;;;;;;;3.63;2.70;;;;;;;;;;5111017;28;20578;-51
2022/06/07 08:39:57;;;;;;;3.60;2.60;;;;;;;;;;5109717;28;20215;-51
2022/06/07 08:42:28;;;;;;;4.20;2.77;;;;;;;;;;5110253;28;20201;-51
2022/06/07 08:44:54;;;;;;;3.20;2.90;;;;;;;;;;5109535;28;20199;-52
2022/06/07 08:47:25;;;;;;;4.93;2.57;;;;;;;;;;5110346;28;20167;-51
2022/06/07 08:49:56;;;;;;;2.70;2.50;;;;;;;;;;5109463;28;20557;-50
2022/06/07 08:52:30;;;;;;;4.57;3.23;;;;;;;;;;5109800;28;20254;-51
2022/06/07 08:54:58;;;;;;;2.87;2.67;;;;;;;;;;5109138;28;20181;-51
2022/06/07 08:57:36;;;;;;;3.73;2.50;;;;;;;;;;5109866;28;20815;-51
2022/06/07 09:00:14;;;;;;;2.93;2.47;;;;;;;;;;5098590;28;20235;-50
2022/06/07 09:02:59;;;;;;;2.40;2.20;;;;;;;;;;5110325;28;20164;-51
2022/06/07 09:05:26;;;;;;;3.53;2.60;;;;;;;;;;5109405;28;20175;-51
2022/06/07 09:07:53;;;;;;;2.63;2.13;;;;;;;;;;5110590;28;20167;-51
2022/06/07 09:13:07;;;;;;;2.90;2.50;;;;;;;;;;5110828;28;20170;-50
2022/06/07 09:15:35;;;;;;;4.10;2.70;;;;;;;;;;5110181;28;20266;-50
2022/06/07 09:18:02;;;;;;;2.50;2.30;;;;;;;;;;5110763;28;20527;-51
2022/06/07 09:20:37;;;;;;;2.27;2.07;;;;;;;;;;5109774;28;20210;-50
2022/06/07 09:23:18;;;;;;;2.93;2.57;;;;;;;;;;5101039;28;20254;-50
2022/06/07 09:25:48;;;;;;;2.33;2.10;;;;;;;;;;5050221;28;20200;-50
2022/06/07 09:28:18;;;;;;;2.73;2.20;;;;;;;;;;5030962;28;20169;-51
2022/06/07 09:30:55;;;;;;;3.87;2.37;;;;;;;;;;5049624;28;20169;-51
2022/06/07 09:33:23;;;;;;;3.30;2.57;;;;;;;;;;5032234;28;20188;-50
2022/06/07 09:35:52;;;;;;;2.37;2.00;;;;;;;;;;5070450;28;20661;-50
2022/06/07 09:38:18;;;;;;;2.70;2.30;;;;;;;;;;5069346;28;20171;-50
2022/06/07 09:40:55;;;;;;;2.87;2.57;;;;;;;;;;5058177;28;20569;-50
2022/06/07 09:43:25;;;;;;;3.33;2.00;;;;;;;;;;5058313;28;20692;-51
2022/06/07 09:45:56;;;;;;;2.80;2.60;;;;;;;;;;5042253;28;20184;-51
2022/06/07 09:48:32;;;;;;;2.40;2.10;;;;;;;;;;5064139;28;20172;-50
2022/06/07 09:51:01;;;;;;;4.13;2.00;;;;;;;;;;5063577;28;20204;-50
2022/06/07 09:53:32;;;;;;;2.67;2.47;;;;;;;;;;5069524;28;20274;-50
2022/06/07 09:56:04;;;;;;;4.73;2.23;;;;;;;;;;5070170;28;20172;-50
2022/06/07 09:58:33;;;;;;;4.47;2.20;;;;;;;;;;5066992;28;20214;-50
2022/06/07 10:01:09;;;;;;;2.33;1.90;;;;;;;;;;5066943;28;20192;-50
2022/06/07 10:03:42;;;;;;;3.07;1.90;;;;;;;;;;5067238;28;20184;-51
2022/06/07 10:06:08;;;;;;;4.60;2.37;;;;;;;;;;5050595;28;20223;-50
2022/06/07 10:08:41;;;;;;;2.00;1.90;;;;;;;;;;5061546;28;20894;-51
2022/06/07 10:11:10;;;;;;;2.43;2.00;;;;;;;;;;5061379;28;20365;-51
2022/06/07 10:13:59;;;;;;;1.70;1.60;;;;;;;;;;5058029;28;20211;-50
2022/06/07 10:16:30;;;;;;;2.10;2.00;;;;;;;;;;5058313;28;20202;-50
2022/06/07 10:19:11;;;;;;;2.23;1.90;;;;;;;;;;5068381;28;20266;-50
2022/06/07 10:21:40;;;;;;;2.10;1.90;;;;;;;;;;5071028;28;20527;-51
2022/06/07 10:24:09;;;;;;;2.47;2.10;;;;;;;;;;5077705;28;20253;-51
2022/06/07 10:26:50;;;;;;;3.00;2.37;;;;;;;;;;5092806;28;20171;-49
2022/06/07 10:29:31;;;;;;;2.60;2.10;;;;;;;;;;5087359;28;20184;-50
2022/06/07 10:32:05;;;;;;;3.43;2.40;;;;;;;;;;5089075;28;20184;-50
2022/06/07 10:34:40;;;;;;;3.27;2.20;;;;;;;;;;5087602;28;20220;-49
2022/06/07 10:37:17;;;;;;;3.20;2.33;;;;;;;;;;5084304;28;20187;-51
2022/06/07 10:40:02;;;;;;;4.50;2.60;;;;;;;;;;5089335;28;20313;-50
2022/06/07 10:42:50;;;;;;;6.23;2.60;;;;;;;;;;5082375;28;20181;-50
2022/06/07 10:45:16;;;;;;;7.03;3.90;;;;;;;;;;5089082;28;20483;-50
2022/06/07 10:48:06;;;;;;;6.50;4.10;;;;;;;;;;5088842;28;20267;-50
2022/06/07 10:50:46;;;;;;;3.90;3.30;;;;;;;;;;5091894;28;20192;-49
2022/06/07 10:53:25;;;;;;;4.03;3.17;;;;;;;;;;5087443;28;20181;-50
2022/06/07 10:56:00;;;;;;;6.13;3.17;;;;;;;;;;5081413;28;20185;-49
2022/06/07 10:58:32;;;;;;;5.10;3.47;;;;;;;;;;5085792;28;20192;-50
2022/06/07 11:01:15;;;;;;;5.90;2.93;;;;;;;;;;5086979;28;20330;-50
2022/06/07 11:03:48;;;;;;;4.27;3.47;;;;;;;;;;5086198;28;20173;-49
2022/06/07 11:09:21;;;;;;;7.07;3.50;;;;;;;;;;5088326;28;20223;-50
2022/06/07 11:11:49;;;;;;;3.80;3.30;;;;;;;;;;5089910;28;20233;-50
2022/06/07 11:14:37;;;;;;;5.37;3.07;;;;;;;;;;5088640;28;20242;-51
2022/06/07 11:17:25;;;;;;;2.87;2.60;;;;;;;;;;5087185;28;20186;-50
2022/06/07 11:19:52;;;;;;;3.60;2.90;;;;;;;;;;5090351;28;20198;-50
2022/06/07 11:22:26;;;;;;;4.07;3.20;;;;;;;;;;5089845;27;20594;-50
2022/06/07 11:24:58;;;;;;;2.70;2.20;;;;;;;;;;5062885;28;20278;-50
2022/06/07 11:27:24;;;;;;;4.93;2.63;;;;;;;;;;5068473;28;20183;-49
2022/06/07 11:30:10;;;;;;;2.97;2.50;;;;;;;;;;5066143;28;20196;-49
2022/06/07 11:32:42;;;;;;;2.70;2.27;;;;;;;;;;5066411;28;20192;-51
2022/06/07 11:35:26;;;;;;;2.73;2.53;;;;;;;;;;5063981;28;20187;-51
2022/06/07 11:37:53;;;;;;;5.50;3.47;;;;;;;;;;5042116;28;20223;-51
2022/06/07 11:40:28;;;;;;;3.70;2.60;;;;;;;;;;5039953;28;20601;-51
2022/06/07 11:42:54;;;;;;;5.57;3.30;;;;;;;;;;5060845;28;20189;-51
2022/06/07 11:45:22;;;;;;;3.77;3.47;;;;;;;;;;5065369;28;20288;-50
2022/06/07 11:47:48;;;;;;;3.07;2.87;;;;;;;;;;5067622;28;20177;-50
2022/06/07 11:50:27;;;;;;;2.73;2.50;;;;;;;;;;5063593;28;20205;-51
2022/06/07 11:53:14;;;;;;;5.63;2.93;;;;;;;;;;5067218;28;20254;-51
2022/06/07 11:55:42;;;;;;;6.07;2.63;;;;;;;;;;5060068;28;20175;-51
2022/06/07 11:58:08;;;;;;;3.50;3.30;;;;;;;;;;5065353;28;20623;-51
2022/06/07 12:00:39;;;;;;;3.60;2.73;;;;;;;;;;5073595;28;20677;-52
2022/06/07 12:09:15;;;;;;;5.70;3.07;;;;;;;;;;5062838;28;20216;-51
2022/06/07 12:17:59;;;;;;;5.43;2.10;;;;;;;;;;5064051;28;20552;-51
2022/06/07 12:20:35;;;;;;;2.60;2.40;;;;;;;;;;5070640;28;20589;-51
2022/06/07 12:23:16;;;;;;;4.47;2.20;;;;;;;;;;5069610;28;20720;-50
2022/06/07 12:25:42;;;;;;;4.17;2.50;;;;;;;;;;5081716;28;20203;-52
2022/06/07 12:28:19;;;;;;;4.80;2.63;;;;;;;;;;5084967;28;20176;-50
2022/06/07 12:30:45;;;;;;;4.00;2.97;;;;;;;;;;5083789;28;20179;-51
2022/06/07 12:33:21;;;;;;;5.57;3.13;;;;;;;;;;5086656;28;20180;-51
2022/06/07 12:35:55;;;;;;;5.77;3.37;;;;;;;;;;5066414;28;20248;-51
2022/06/07 12:38:21;;;;;;;5.57;2.43;;;;;;;;;;5085730;28;20194;-51
2022/06/07 12:40:55;;;;;;;2.77;2.53;;;;;;;;;;5075697;28;20207;-49
2022/06/07 12:43:28;;;;;;;4.93;2.50;;;;;;;;;;5079473;28;20193;-49
2022/06/07 12:45:58;;;;;;;3.70;2.20;;;;;;;;;;5079773;28;20182;-49
2022/06/07 12:48:24;;;;;;;2.90;2.30;;;;;;;;;;5064886;28;20723;-50
2022/06/07 12:50:50;;;;;;;4.20;2.43;;;;;;;;;;5086839;28;20600;-49
2022/06/07 12:53:25;;;;;;;3.00;2.17;;;;;;;;;;5088267;28;20627;-50
2022/06/07 12:55:56;;;;;;;4.20;2.83;;;;;;;;;;5067730;28;20200;-49
2022/06/07 12:58:23;;;;;;;5.43;2.73;;;;;;;;;;5081525;28;20196;-50
2022/06/07 13:00:50;;;;;;;4.40;2.70;;;;;;;;;;5080688;28;20316;-50
2022/06/07 13:03:23;;;;;;;6.27;3.20;;;;;;;;;;5082791;28;20188;-51
2022/06/07 13:05:52;;;;;;;3.60;2.30;;;;;;;;;;5085300;28;20181;-52
2022/06/07 13:08:22;;;;;;;8.83;2.73;;;;;;;;;;5087354;28;20162;-49
2022/06/07 13:10:48;;;;;;;2.93;2.37;;;;;;;;;;5087388;28;20179;-50
2022/06/07 13:13:23;;;;;;;3.30;2.17;;;;;;;;;;5081139;28;20274;-51
2022/06/07 13:15:52;;;;;;;2.13;1.93;;;;;;;;;;5083045;28;20191;-50
2022/06/07 13:18:23;;;;;;;4.07;2.20;;;;;;;;;;5080077;28;20674;-50
2022/06/07 13:20:51;;;;;;;2.40;1.97;;;;;;;;;;5084028;28;20229;-50
2022/06/07 13:23:28;;;;;;;6.83;2.80;;;;;;;;;;5087774;28;20223;-50
2022/06/07 13:26:10;;;;;;;2.80;2.07;;;;;;;;;;5082662;28;20168;-50
2022/06/07 13:28:37;;;;;;;3.10;2.30;;;;;;;;;;5081973;28;20172;-52
2022/06/07 13:31:03;;;;;;;2.00;1.90;;;;;;;;;;5084851;28;20178;-50
2022/06/07 13:33:31;;;;;;;2.20;2.10;;;;;;;;;;5086503;28;20239;-50
2022/06/07 13:36:00;;;;;;;2.30;1.90;;;;;;;;;;5088147;28;20203;-50
2022/06/07 13:38:36;;;;;;;3.17;2.00;;;;;;;;;;5085799;28;20193;-51
2022/06/07 13:41:02;;;;;;;2.03;1.93;;;;;;;;;;5086541;28;20282;-51
2022/06/07 13:43:28;;;;;;;1.80;1.70;;;;;;;;;;5086142;28;20180;-49
2022/06/07 13:45:54;;;;;;;2.17;2.00;;;;;;;;;;5082283;28;20195;-50
2022/06/07 13:53:21;;;;;;;2.90;2.53;;;;;;;;;;5082291;28;20259;-50
2022/06/07 13:54:20;;;;;;;3.13;2.20;;;;;;;;;;5084295;28;20302;-50
2022/06/07 13:56:46;;;;;;;10.87;2.93;;;;;;;;;;5086500;28;20269;-51
2022/06/07 13:59:15;;;;;;;4.10;3.80;;;;;;;;;;5086581;28;20218;-50
2022/06/07 14:01:42;;;;;;;4.23;3.43;;;;;;;;;;5081668;28;20176;-50
2022/06/07 14:04:21;;;;;;;5.77;3.90;;;;;;;;;;5069184;28;20176;-49
2022/06/07 14:06:48;;;;;;;5.33;3.13;;;;;;;;;;5085693;28;20543;-50
2022/06/07 14:09:19;;;;;;;3.40;3.10;;;;;;;;;;5084889;28;20191;-50
2022/06/07 14:11:45;;;;;;;3.30;2.57;;;;;;;;;;5089291;28;20207;-50
2022/06/07 14:14:11;;;;;;;2.93;2.73;;;;;;;;;;5086341;28;20524;-49
2022/06/07 14:16:43;;;;;;;2.50;2.30;;;;;;;;;;5086574;28;20192;-52
2022/06/07 14:19:14;;;;;;;3.30;2.80;;;;;;;;;;5087081;28;20501;-50
2022/06/07 14:21:40;;;;;;;2.57;2.10;;;;;;;;;;5086042;28;20204;-48
2022/06/07 14:24:12;;;;;;;3.53;2.17;;;;;;;;;;5074980;28;20703;-49
2022/06/07 14:26:38;;;;;;;2.20;2.10;;;;;;;;;;5105916;28;20194;-49
2022/06/07 14:29:04;;;;;;;2.47;2.23;;;;;;;;;;5103310;28;20212;-49
2022/06/07 14:31:32;;;;;;;2.60;2.30;;;;;;;;;;5099501;28;20180;-50
2022/06/07 14:33:58;;;;;;;2.80;2.13;;;;;;;;;;5111172;28;20258;-50
2022/06/07 14:36:24;;;;;;;3.00;2.10;;;;;;;;;;5101244;27;20225;-50
2022/06/07 14:38:50;;;;;;;2.70;2.10;;;;;;;;;;5107299;28;20177;-49
2022/06/07 14:41:16;;;;;;;2.67;2.23;;;;;;;;;;5103136;28;20165;-50
2022/06/07 14:43:42;;;;;;;1.97;1.83;;;;;;;;;;5110248;28;20180;-51
2022/06/07 14:46:34;;;;;;;2.30;2.10;;;;;;;;;;5108252;28;20236;-50
2022/06/07 14:49:08;;;;;;;2.20;2.10;;;;;;;;;;5103041;28;21341;-49
2022/06/07 14:51:39;;;;;;;2.10;2.00;;;;;;;;;;5089859;28;20710;-51
2022/06/07 14:54:14;;;;;;;3.73;2.10;;;;;;;;;;5108721;28;20253;-50
2022/06/07 14:59:43;;;;;;;3.70;2.50;;;;;;;;;;5106593;28;20704;-54
2022/06/07 15:02:18;;;;;;;2.50;1.90;;;;;;;;;;5105536;28;20205;-51
2022/06/07 15:04:52;;;;;;;4.13;2.60;;;;;;;;;;5110213;28;20694;-50
2022/06/07 15:07:21;;;;;;;2.00;1.83;;;;;;;;;;5088481;28;20548;-51
2022/06/07 15:09:47;;;;;;;2.13;1.90;;;;;;;;;;5106833;28;20185;-51
2022/06/07 15:18:23;;;;;;;1.80;1.60;;;;;;;;;;5101349;28;20278;-52
2022/06/07 15:23:53;;;;;;;1.90;1.80;;;;;;;;;;5104771;27;20290;-51
2022/06/07 15:26:21;;;;;;;1.73;1.63;;;;;;;;;;5108572;28;20583;-52
2022/06/07 15:28:47;;;;;;;1.80;1.70;;;;;;;;;;5107471;28;20176;-51
2022/06/07 15:31:18;;;;;;;1.70;1.60;;;;;;;;;;5096117;28;20185;-52
2022/06/07 15:33:46;;;;;;;1.63;1.53;;;;;;;;;;5107541;28;20196;-52
2022/06/07 15:36:12;;;;;;;1.50;1.40;;;;;;;;;;5108063;28;20173;-51
2022/06/07 15:38:42;;;;;;;1.50;1.40;;;;;;;;;;5109492;28;20223;-52
2022/06/07 15:43:53;;;;;;;1.50;1.40;;;;;;;;;;5105888;28;20726;-52
2022/06/07 15:46:20;;;;;;;1.60;1.43;;;;;;;;;;5106346;28;20255;-52